sensor_id;sensor_type;location;lat;lon;timestamp;P1;durP1;ratioP1;P2;durP2;ratioP2
77563;SDS011;66703;48.076;9.220;2023-04-24T04:41:46;8.88;;;8.50;;
77563;SDS011;66703;48.076;9.220;2023-04-24T04:44:21;8.77;;;8.45;;
77563;SDS011;66703;48.076;9.220;2023-04-24T04:46:48;10.60;;;10.20;;
77563;SDS011;66703;48.076;9.220;2023-04-24T04:49:14;6.72;;;6.43;;
77563;SDS011;66703;48.076;9.220;2023-04-24T04:51:47;8.45;;;8.05;;
77563;SDS011;66703;48.076;9.220;2023-04-24T04:54:14;8.30;;;7.97;;
77563;SDS011;66703;48.076;9.220;2023-04-24T04:56:45;7.85;;;7.55;;
77563;SDS011;66703;48.076;9.220;2023-04-24T04:59:10;6.22;;;5.82;;
77563;SDS011;66703;48.076;9.220;2023-04-24T05:01:39;8.15;;;7.85;;
77563;SDS011;66703;48.076;9.220;2023-04-24T05:04:05;8.63;;;8.10;;
77563;SDS011;66703;48.076;9.220;2023-04-24T05:06:30;6.90;;;6.60;;
77563;SDS011;66703;48.076;9.220;2023-04-24T05:08:56;6.82;;;6.53;;
77563;SDS011;66703;48.076;9.220;2023-04-24T05:11:22;9.52;;;9.13;;
77563;SDS011;66703;48.076;9.220;2023-04-24T05:13:51;6.50;;;6.20;;
77563;SDS011;66703;48.076;9.220;2023-04-24T05:17:00;8.93;;;8.52;;
77563;SDS011;66703;48.076;9.220;2023-04-24T05:20:20;9.10;;;8.70;;
77563;SDS011;66703;48.076;9.220;2023-04-24T05:22:58;8.27;;;7.88;;
77563;SDS011;66703;48.076;9.220;2023-04-24T05:29:33;9.52;;;9.18;;
77563;SDS011;66703;48.076;9.220;2023-04-24T05:32:26;7.45;;;7.10;;
77563;SDS011;66703;48.076;9.220;2023-04-24T05:38:58;7.68;;;7.38;;
77563;SDS011;66703;48.076;9.220;2023-04-24T06:26:21;5.25;;;4.95;;
77563;SDS011;66703;48.076;9.220;2023-04-24T10:34:28;4.75;;;4.40;;
77563;SDS011;66703;48.076;9.220;2023-04-24T10:37:54;4.38;;;4.13;;
77563;SDS011;66703;48.076;9.220;2023-04-24T10:40:37;5.60;;;5.03;;
77563;SDS011;66703;48.076;9.220;2023-04-24T10:46:47;5.13;;;4.82;;
77563;SDS011;66703;48.076;9.220;2023-04-24T10:53:22;5.85;;;3.97;;
77563;SDS011;66703;48.076;9.220;2023-04-24T11:01:53;3.80;;;3.50;;
77563;SDS011;66703;48.076;9.220;2023-04-24T11:07:16;4.18;;;3.78;;
77563;SDS011;66703;48.076;9.220;2023-04-24T11:17:50;3.72;;;3.33;;
77563;SDS011;66703;48.076;9.220;2023-04-24T11:34:55;4.95;;;3.75;;
77563;SDS011;66703;48.076;9.220;2023-04-24T11:37:27;5.97;;;5.40;;
77563;SDS011;66703;48.076;9.220;2023-04-24T11:41:04;4.85;;;4.55;;
77563;SDS011;66703;48.076;9.220;2023-04-24T11:46:46;4.15;;;3.67;;
77563;SDS011;66703;48.076;9.220;2023-04-24T11:49:32;5.15;;;4.75;;
77563;SDS011;66703;48.076;9.220;2023-04-24T11:52:00;6.68;;;6.28;;
77563;SDS011;66703;48.076;9.220;2023-04-24T11:54:35;3.78;;;3.47;;
77563;SDS011;66703;48.076;9.220;2023-04-24T11:57:13;5.13;;;4.68;;
77563;SDS011;66703;48.076;9.220;2023-04-24T12:00:20;3.30;;;3.00;;
77563;SDS011;66703;48.076;9.220;2023-04-24T12:26:08;3.72;;;3.42;;
77563;SDS011;66703;48.076;9.220;2023-04-24T12:33:44;5.68;;;4.72;;
77563;SDS011;66703;48.076;9.220;2023-04-24T12:36:45;3.50;;;3.20;;
77563;SDS011;66703;48.076;9.220;2023-04-24T12:39:31;5.03;;;4.72;;
77563;SDS011;66703;48.076;9.220;2023-04-24T12:41:57;6.30;;;5.78;;
77563;SDS011;66703;48.076;9.220;2023-04-24T12:44:44;3.40;;;3.10;;
77563;SDS011;66703;48.076;9.220;2023-04-24T12:47:13;5.20;;;4.43;;
77563;SDS011;66703;48.076;9.220;2023-04-24T12:49:38;3.00;;;2.78;;
77563;SDS011;66703;48.076;9.220;2023-04-24T12:52:06;3.70;;;3.40;;
77563;SDS011;66703;48.076;9.220;2023-04-24T12:54:34;4.00;;;3.30;;
77563;SDS011;66703;48.076;9.220;2023-04-24T12:56:59;4.03;;;3.63;;
77563;SDS011;66703;48.076;9.220;2023-04-24T12:59:25;5.18;;;3.80;;
77563;SDS011;66703;48.076;9.220;2023-04-24T13:01:51;4.10;;;3.85;;
77563;SDS011;66703;48.076;9.220;2023-04-24T13:04:16;3.75;;;3.55;;
77563;SDS011;66703;48.076;9.220;2023-04-24T13:06:42;3.90;;;3.50;;
77563;SDS011;66703;48.076;9.220;2023-04-24T13:09:07;3.53;;;3.33;;
77563;SDS011;66703;48.076;9.220;2023-04-24T13:11:36;5.78;;;5.38;;
77563;SDS011;66703;48.076;9.220;2023-04-24T13:14:14;3.97;;;3.78;;
77563;SDS011;66703;48.076;9.220;2023-04-24T13:16:42;4.40;;;4.10;;
77563;SDS011;66703;48.076;9.220;2023-04-24T13:22:09;3.90;;;3.58;;
77563;SDS011;66703;48.076;9.220;2023-04-24T13:24:56;4.55;;;4.15;;
77563;SDS011;66703;48.076;9.220;2023-04-24T13:27:22;3.97;;;3.67;;
77563;SDS011;66703;48.076;9.220;2023-04-24T13:29:47;3.75;;;3.45;;
77563;SDS011;66703;48.076;9.220;2023-04-24T13:32:13;4.07;;;3.70;;
77563;SDS011;66703;48.076;9.220;2023-04-24T13:34:46;4.95;;;4.20;;
77563;SDS011;66703;48.076;9.220;2023-04-24T13:37:12;4.75;;;4.38;;
77563;SDS011;66703;48.076;9.220;2023-04-24T13:39:37;4.07;;;3.88;;
77563;SDS011;66703;48.076;9.220;2023-04-24T13:42:03;4.75;;;4.40;;
77563;SDS011;66703;48.076;9.220;2023-04-24T13:44:29;4.43;;;4.22;;
77563;SDS011;66703;48.076;9.220;2023-04-24T13:47:12;4.18;;;3.97;;
77563;SDS011;66703;48.076;9.220;2023-04-24T13:49:37;4.68;;;4.38;;
77563;SDS011;66703;48.076;9.220;2023-04-24T13:52:23;4.57;;;4.28;;
77563;SDS011;66703;48.076;9.220;2023-04-24T13:55:00;4.85;;;4.60;;
77563;SDS011;66703;48.076;9.220;2023-04-24T14:00:50;4.28;;;3.90;;
77563;SDS011;66703;48.076;9.220;2023-04-24T14:03:34;4.13;;;3.83;;
77563;SDS011;66703;48.076;9.220;2023-04-24T14:13:19;3.22;;;3.03;;
77563;SDS011;66703;48.076;9.220;2023-04-24T14:22:30;3.25;;;3.05;;
77563;SDS011;66703;48.076;9.220;2023-04-24T14:25:42;3.90;;;3.60;;
77563;SDS011;66703;48.076;9.220;2023-04-24T14:28:19;2.88;;;2.67;;
77563;SDS011;66703;48.076;9.220;2023-04-24T14:31:46;3.38;;;3.17;;
77563;SDS011;66703;48.076;9.220;2023-04-24T14:34:47;3.03;;;2.83;;
77563;SDS011;66703;48.076;9.220;2023-04-24T14:40:18;4.05;;;3.42;;
77563;SDS011;66703;48.076;9.220;2023-04-24T14:46:54;3.88;;;3.65;;
77563;SDS011;66703;48.076;9.220;2023-04-24T14:49:23;3.60;;;2.72;;
77563;SDS011;66703;48.076;9.220;2023-04-24T15:01:27;3.53;;;3.30;;
77563;SDS011;66703;48.076;9.220;2023-04-24T15:04:12;4.93;;;4.63;;
77563;SDS011;66703;48.076;9.220;2023-04-24T15:13:57;3.10;;;2.90;;
77563;SDS011;66703;48.076;9.220;2023-04-24T15:20:14;4.45;;;4.15;;
77563;SDS011;66703;48.076;9.220;2023-04-24T15:30:03;3.83;;;3.53;;
77563;SDS011;66703;48.076;9.220;2023-04-24T15:37:09;4.22;;;3.90;;
77563;SDS011;66703;48.076;9.220;2023-04-24T15:54:41;5.00;;;4.50;;
77563;SDS011;66703;48.076;9.220;2023-04-24T16:14:39;5.55;;;5.10;;
77563;SDS011;66703;48.076;9.220;2023-04-24T16:33:09;4.38;;;3.97;;
77563;SDS011;66703;48.076;9.220;2023-04-24T16:43:23;4.47;;;4.18;;
77563;SDS011;66703;48.076;9.220;2023-04-24T16:46:55;5.00;;;4.53;;
77563;SDS011;66703;48.076;9.220;2023-04-24T16:49:21;6.15;;;5.82;;
77563;SDS011;66703;48.076;9.220;2023-04-24T16:57:43;6.60;;;6.20;;
77563;SDS011;66703;48.076;9.220;2023-04-24T17:10:58;5.43;;;5.13;;
77563;SDS011;66703;48.076;9.220;2023-04-24T17:14:14;4.93;;;4.57;;
77563;SDS011;66703;48.076;9.220;2023-04-24T17:21:21;4.65;;;4.35;;
77563;SDS011;66703;48.076;9.220;2023-04-24T17:23:46;5.13;;;4.57;;
77563;SDS011;66703;48.076;9.220;2023-04-24T17:26:19;6.07;;;5.63;;
77563;SDS011;66703;48.076;9.220;2023-04-24T17:36:15;4.82;;;4.53;;
77563;SDS011;66703;48.076;9.220;2023-04-24T17:42:09;5.07;;;4.78;;
77563;SDS011;66703;48.076;9.220;2023-04-24T18:19:45;5.82;;;5.43;;
77563;SDS011;66703;48.076;9.220;2023-04-24T18:29:56;7.78;;;6.57;;
77563;SDS011;66703;48.076;9.220;2023-04-24T18:36:29;5.00;;;4.68;;
77563;SDS011;66703;48.076;9.220;2023-04-24T18:43:02;5.72;;;5.43;;
77563;SDS011;66703;48.076;9.220;2023-04-24T18:46:25;7.57;;;7.18;;
77563;SDS011;66703;48.076;9.220;2023-04-24T18:49:02;6.35;;;5.80;;
77563;SDS011;66703;48.076;9.220;2023-04-24T18:51:29;5.75;;;5.45;;
77563;SDS011;66703;48.076;9.220;2023-04-24T18:53:55;7.63;;;7.13;;
77563;SDS011;66703;48.076;9.220;2023-04-24T18:56:21;6.90;;;6.50;;
77563;SDS011;66703;48.076;9.220;2023-04-24T19:01:21;7.63;;;7.22;;
77563;SDS011;66703;48.076;9.220;2023-04-24T19:04:22;8.10;;;7.70;;
77563;SDS011;66703;48.076;9.220;2023-04-24T19:11:09;5.72;;;5.28;;
77563;SDS011;66703;48.076;9.220;2023-04-24T19:14:12;10.95;;;10.25;;
77563;SDS011;66703;48.076;9.220;2023-04-24T19:16:44;7.53;;;7.03;;
77563;SDS011;66703;48.076;9.220;2023-04-24T19:19:09;5.53;;;5.13;;
77563;SDS011;66703;48.076;9.220;2023-04-24T19:21:45;6.88;;;6.47;;
77563;SDS011;66703;48.076;9.220;2023-04-24T19:24:24;7.95;;;7.45;;
77563;SDS011;66703;48.076;9.220;2023-04-24T19:26:53;10.23;;;9.73;;
77563;SDS011;66703;48.076;9.220;2023-04-24T19:29:18;9.52;;;9.00;;
77563;SDS011;66703;48.076;9.220;2023-04-24T19:31:44;9.10;;;8.68;;
77563;SDS011;66703;48.076;9.220;2023-04-24T19:34:09;7.45;;;6.85;;
77563;SDS011;66703;48.076;9.220;2023-04-24T19:36:38;7.07;;;6.57;;
77563;SDS011;66703;48.076;9.220;2023-04-24T19:39:04;9.50;;;8.95;;
77563;SDS011;66703;48.076;9.220;2023-04-24T19:41:30;8.18;;;7.60;;
77563;SDS011;66703;48.076;9.220;2023-04-24T19:43:55;7.93;;;7.45;;
77563;SDS011;66703;48.076;9.220;2023-04-24T19:46:20;8.70;;;8.20;;
77563;SDS011;66703;48.076;9.220;2023-04-24T19:48:47;9.27;;;8.63;;
77563;SDS011;66703;48.076;9.220;2023-04-24T19:51:12;8.60;;;8.07;;
77563;SDS011;66703;48.076;9.220;2023-04-24T19:53:38;7.35;;;6.82;;
77563;SDS011;66703;48.076;9.220;2023-04-24T19:56:03;9.00;;;8.40;;
77563;SDS011;66703;48.076;9.220;2023-04-24T19:58:32;9.25;;;8.75;;
77563;SDS011;66703;48.076;9.220;2023-04-24T20:00:57;11.02;;;10.32;;
77563;SDS011;66703;48.076;9.220;2023-04-24T20:03:30;7.47;;;6.82;;
77563;SDS011;66703;48.076;9.220;2023-04-24T20:05:58;6.38;;;5.90;;
77563;SDS011;66703;48.076;9.220;2023-04-24T20:08:23;7.88;;;7.28;;
77563;SDS011;66703;48.076;9.220;2023-04-24T20:10:51;7.35;;;6.65;;
77563;SDS011;66703;48.076;9.220;2023-04-24T20:13:18;7.75;;;7.05;;
77563;SDS011;66703;48.076;9.220;2023-04-24T20:15:43;8.68;;;8.07;;
77563;SDS011;66703;48.076;9.220;2023-04-24T20:18:09;7.95;;;7.50;;
77563;SDS011;66703;48.076;9.220;2023-04-24T20:20:35;9.50;;;9.10;;
77563;SDS011;66703;48.076;9.220;2023-04-24T20:23:03;7.63;;;7.13;;
77563;SDS011;66703;48.076;9.220;2023-04-24T20:25:29;7.35;;;6.95;;
77563;SDS011;66703;48.076;9.220;2023-04-24T20:27:57;6.47;;;6.05;;
77563;SDS011;66703;48.076;9.220;2023-04-24T20:30:23;9.00;;;8.60;;
77563;SDS011;66703;48.076;9.220;2023-04-24T20:32:50;12.10;;;11.52;;
77563;SDS011;66703;48.076;9.220;2023-04-24T20:35:18;6.68;;;6.28;;
77563;SDS011;66703;48.076;9.220;2023-04-24T20:37:46;7.43;;;6.85;;
77563;SDS011;66703;48.076;9.220;2023-04-24T20:40:11;8.05;;;7.53;;
77563;SDS011;66703;48.076;9.220;2023-04-24T20:42:38;6.68;;;5.78;;
77563;SDS011;66703;48.076;9.220;2023-04-24T20:45:04;6.80;;;6.32;;
77563;SDS011;66703;48.076;9.220;2023-04-24T20:47:32;8.20;;;7.70;;
77563;SDS011;66703;48.076;9.220;2023-04-24T20:49:58;7.82;;;7.30;;
77563;SDS011;66703;48.076;9.220;2023-04-24T20:52:28;7.65;;;7.20;;
77563;SDS011;66703;48.076;9.220;2023-04-24T20:54:53;9.50;;;9.00;;
77563;SDS011;66703;48.076;9.220;2023-04-24T20:57:19;7.63;;;7.05;;
77563;SDS011;66703;48.076;9.220;2023-04-24T20:59:46;9.60;;;9.10;;
77563;SDS011;66703;48.076;9.220;2023-04-24T21:02:12;5.60;;;5.20;;
77563;SDS011;66703;48.076;9.220;2023-04-24T21:04:40;7.93;;;6.85;;
77563;SDS011;66703;48.076;9.220;2023-04-24T21:07:07;6.55;;;6.15;;
77563;SDS011;66703;48.076;9.220;2023-04-24T21:09:37;6.28;;;5.88;;
77563;SDS011;66703;48.076;9.220;2023-04-24T21:12:05;7.20;;;6.60;;
77563;SDS011;66703;48.076;9.220;2023-04-24T21:14:30;7.32;;;6.82;;
77563;SDS011;66703;48.076;9.220;2023-04-24T21:16:59;5.90;;;5.40;;
77563;SDS011;66703;48.076;9.220;2023-04-24T21:19:25;6.07;;;5.57;;
77563;SDS011;66703;48.076;9.220;2023-04-24T21:21:53;6.97;;;6.22;;
77563;SDS011;66703;48.076;9.220;2023-04-24T21:24:18;6.30;;;5.80;;
77563;SDS011;66703;48.076;9.220;2023-04-24T21:26:52;7.40;;;6.97;;
77563;SDS011;66703;48.076;9.220;2023-04-24T21:29:17;8.00;;;7.50;;
77563;SDS011;66703;48.076;9.220;2023-04-24T21:31:43;8.25;;;7.72;;
77563;SDS011;66703;48.076;9.220;2023-04-24T21:34:11;9.65;;;9.05;;
77563;SDS011;66703;48.076;9.220;2023-04-24T21:36:41;7.65;;;7.15;;
77563;SDS011;66703;48.076;9.220;2023-04-24T21:39:07;6.22;;;5.72;;
77563;SDS011;66703;48.076;9.220;2023-04-24T21:41:32;6.13;;;5.72;;
77563;SDS011;66703;48.076;9.220;2023-04-24T21:44:00;7.07;;;6.68;;
77563;SDS011;66703;48.076;9.220;2023-04-24T21:46:31;8.25;;;7.75;;
77563;SDS011;66703;48.076;9.220;2023-04-24T21:48:56;6.65;;;6.25;;
77563;SDS011;66703;48.076;9.220;2023-04-24T21:51:22;7.07;;;6.57;;
77563;SDS011;66703;48.076;9.220;2023-04-24T21:53:50;17.20;;;16.48;;
77563;SDS011;66703;48.076;9.220;2023-04-24T21:56:15;10.15;;;9.65;;
77563;SDS011;66703;48.076;9.220;2023-04-24T21:58:43;7.32;;;6.85;;
77563;SDS011;66703;48.076;9.220;2023-04-24T22:01:09;7.88;;;7.38;;
77563;SDS011;66703;48.076;9.220;2023-04-24T22:03:36;7.40;;;6.90;;
77563;SDS011;66703;48.076;9.220;2023-04-24T22:06:02;7.15;;;6.55;;
77563;SDS011;66703;48.076;9.220;2023-04-24T22:08:28;9.50;;;8.88;;
77563;SDS011;66703;48.076;9.220;2023-04-24T22:10:56;8.65;;;8.25;;
77563;SDS011;66703;48.076;9.220;2023-04-24T22:13:21;9.65;;;9.15;;
77563;SDS011;66703;48.076;9.220;2023-04-24T22:15:48;8.15;;;7.65;;
77563;SDS011;66703;48.076;9.220;2023-04-24T22:18:14;9.25;;;8.75;;
77563;SDS011;66703;48.076;9.220;2023-04-24T22:20:42;8.40;;;7.90;;
77563;SDS011;66703;48.076;9.220;2023-04-24T22:23:07;8.77;;;8.35;;
77563;SDS011;66703;48.076;9.220;2023-04-24T22:25:33;9.10;;;8.50;;
77563;SDS011;66703;48.076;9.220;2023-04-24T22:27:58;6.75;;;6.30;;
77563;SDS011;66703;48.076;9.220;2023-04-24T22:30:24;9.05;;;8.45;;
77563;SDS011;66703;48.076;9.220;2023-04-24T22:32:49;7.88;;;7.38;;
77563;SDS011;66703;48.076;9.220;2023-04-24T22:35:15;8.52;;;7.97;;
77563;SDS011;66703;48.076;9.220;2023-04-24T22:37:43;10.98;;;10.25;;
77563;SDS011;66703;48.076;9.220;2023-04-24T22:40:08;11.02;;;10.32;;
77563;SDS011;66703;48.076;9.220;2023-04-24T22:42:37;10.45;;;9.85;;
77563;SDS011;66703;48.076;9.220;2023-04-24T22:45:03;8.75;;;8.25;;
77563;SDS011;66703;48.076;9.220;2023-04-24T22:47:36;8.82;;;8.23;;
77563;SDS011;66703;48.076;9.220;2023-04-24T22:50:02;10.90;;;10.30;;
77563;SDS011;66703;48.076;9.220;2023-04-24T22:55:00;8.80;;;8.25;;
77563;SDS011;66703;48.076;9.220;2023-04-24T22:57:28;13.65;;;12.77;;
77563;SDS011;66703;48.076;9.220;2023-04-24T22:59:59;11.82;;;11.13;;
77563;SDS011;66703;48.076;9.220;2023-04-24T23:02:24;12.15;;;11.57;;
77563;SDS011;66703;48.076;9.220;2023-04-24T23:04:52;9.63;;;9.02;;
77563;SDS011;66703;48.076;9.220;2023-04-24T23:07:18;8.75;;;8.13;;
77563;SDS011;66703;48.076;9.220;2023-04-24T23:09:44;7.75;;;7.13;;
77563;SDS011;66703;48.076;9.220;2023-04-24T23:12:10;7.97;;;7.28;;
77563;SDS011;66703;48.076;9.220;2023-04-24T23:14:35;8.05;;;7.38;;
77563;SDS011;66703;48.076;9.220;2023-04-24T23:17:00;11.00;;;10.20;;
77563;SDS011;66703;48.076;9.220;2023-04-24T23:19:26;8.75;;;8.13;;
77563;SDS011;66703;48.076;9.220;2023-04-24T23:21:51;8.40;;;7.80;;
77563;SDS011;66703;48.076;9.220;2023-04-24T23:24:17;6.55;;;6.00;;
77563;SDS011;66703;48.076;9.220;2023-04-24T23:26:42;9.82;;;9.13;;
77563;SDS011;66703;48.076;9.220;2023-04-24T23:29:12;9.60;;;8.98;;
77563;SDS011;66703;48.076;9.220;2023-04-24T23:31:38;8.35;;;7.55;;
77563;SDS011;66703;48.076;9.220;2023-04-24T23:34:03;8.35;;;7.75;;
77563;SDS011;66703;48.076;9.220;2023-04-24T23:36:29;8.93;;;8.32;;
77563;SDS011;66703;48.076;9.220;2023-04-24T23:38:55;10.52;;;9.80;;
77563;SDS011;66703;48.076;9.220;2023-04-24T23:41:24;11.93;;;11.23;;
77563;SDS011;66703;48.076;9.220;2023-04-24T23:43:49;8.73;;;8.07;;
77563;SDS011;66703;48.076;9.220;2023-04-24T23:46:17;10.77;;;10.07;;
77563;SDS011;66703;48.076;9.220;2023-04-24T23:48:43;9.38;;;8.57;;
77563;SDS011;66703;48.076;9.220;2023-04-24T23:51:08;10.98;;;10.27;;
77563;SDS011;66703;48.076;9.220;2023-04-24T23:53:36;10.77;;;10.15;;
77563;SDS011;66703;48.076;9.220;2023-04-24T23:56:02;11.77;;;10.98;;
77563;SDS011;66703;48.076;9.220;2023-04-24T23:58:28;11.70;;;10.90;;
